Time;durP1;ratioP1;P1;durP2;ratioP2;P2;SDS_P1;SDS_P2;PMS_P1;PMS_P2;Temp;Humidity;BMP_temperature;BMP_pressure;BME280_temperature;BME280_humidity;BME280_pressure;Samples;Min_cycle;Max_cycle;Signal;HPM_P1;HPM_P2
2021/11/08 00:01:51;;;;;;;1999.90;999.90;;;5.10;99.90;;;;;;5113243;28;20387;-80
2021/11/08 00:04:17;;;;;;;1999.90;999.90;;;5.10;99.90;;;;;;5113437;28;20016;-81
2021/11/08 00:06:43;;;;;;;1999.90;999.90;;;5.10;99.90;;;;;;5113459;28;20023;-80
2021/11/08 00:09:08;;;;;;;1999.90;999.90;;;5.10;99.90;;;;;;5113362;28;20026;-80
2021/11/08 00:11:36;;;;;;;1999.90;999.90;;;5.20;99.90;;;;;;5113382;28;20027;-81
2021/11/08 00:14:02;;;;;;;1999.90;999.90;;;5.10;99.90;;;;;;5112781;28;20436;-82
2021/11/08 00:16:37;;;;;;;1999.90;999.90;;;5.10;99.90;;;;;;5113158;28;20024;-83
2021/11/08 00:21:35;;;;;;;1999.90;999.90;;;5.20;99.90;;;;;;5114107;27;20042;-80
2021/11/08 00:24:02;;;;;;;1999.90;999.90;;;5.20;99.90;;;;;;5112614;28;20467;-81
2021/11/08 00:26:28;;;;;;;1999.90;999.90;;;5.20;99.90;;;;;;5112563;28;20019;-82
2021/11/08 00:28:54;;;;;;;1999.90;999.90;;;5.20;99.90;;;;;;5112427;28;20165;-80
2021/11/08 00:31:20;;;;;;;1999.90;999.90;;;5.10;99.90;;;;;;5113228;28;20027;-80
2021/11/08 00:33:46;;;;;;;1999.90;999.90;;;5.10;99.90;;;;;;5114688;28;20024;-85
2021/11/08 00:36:12;;;;;;;1999.90;999.90;;;5.10;99.90;;;;;;5113249;28;20491;-81
2021/11/08 00:38:38;;;;;;;1999.90;999.90;;;5.10;99.90;;;;;;5113335;28;20084;-80
2021/11/08 00:41:04;;;;;;;1999.90;999.90;;;5.00;99.90;;;;;;5113099;28;20106;-80
2021/11/08 00:43:30;;;;;;;1999.90;999.90;;;5.00;99.90;;;;;;5113008;28;20422;-80
2021/11/08 00:45:56;;;;;;;1999.90;999.90;;;5.00;99.90;;;;;;5112976;28;20348;-88
2021/11/08 00:48:25;;;;;;;1999.90;999.90;;;5.00;99.90;;;;;;5112909;28;20501;-81
2021/11/08 00:50:53;;;;;;;1999.90;999.90;;;5.00;99.90;;;;;;5112696;27;20455;-83
2021/11/08 00:53:19;;;;;;;1999.90;999.90;;;5.00;99.90;;;;;;5112725;28;20348;-80
2021/11/08 00:55:45;;;;;;;1999.90;999.90;;;5.00;99.90;;;;;;5112552;28;20022;-81
2021/11/08 01:01:08;;;;;;;1999.90;999.90;;;5.10;99.90;;;;;;5109001;28;20048;-84
2021/11/08 01:03:43;;;;;;;1999.90;999.90;;;5.10;99.90;;;;;;5112475;28;20044;-81
2021/11/08 01:06:10;;;;;;;1999.90;999.90;;;5.20;99.90;;;;;;5112444;28;20030;-81
2021/11/08 01:08:36;;;;;;;1999.90;999.90;;;5.10;99.90;;;;;;5112754;28;20356;-81
2021/11/08 01:11:02;;;;;;;1999.90;999.90;;;5.10;99.90;;;;;;5112797;28;20030;-81
2021/11/08 01:13:28;;;;;;;1999.90;999.90;;;5.10;99.90;;;;;;5112516;28;20080;-80
2021/11/08 01:15:57;;;;;;;1999.90;999.90;;;5.20;99.90;;;;;;5112492;28;20428;-82
2021/11/08 01:18:24;;;;;;;1999.90;999.90;;;5.20;99.90;;;;;;5112391;28;20024;-81
2021/11/08 01:20:50;;;;;;;1999.90;999.90;;;5.20;99.90;;;;;;5112481;28;20035;-81
2021/11/08 01:23:18;;;;;;;1999.90;999.90;;;5.20;99.90;;;;;;5112538;28;20028;-85
2021/11/08 01:25:53;;;;;;;1999.90;999.90;;;5.20;99.90;;;;;;5112160;28;20122;-80
2021/11/08 01:28:19;;;;;;;1999.90;999.90;;;5.20;99.90;;;;;;5112292;28;20029;-80
2021/11/08 01:30:45;;;;;;;1999.90;999.90;;;5.30;99.90;;;;;;5112355;28;20044;-81
2021/11/08 01:33:16;;;;;;;1999.90;999.90;;;5.20;99.90;;;;;;5112255;28;20031;-83
2021/11/08 01:35:45;;;;;;;1999.90;999.90;;;5.20;99.90;;;;;;5113675;28;20153;-81
2021/11/08 01:38:25;;;;;;;1999.90;999.90;;;5.30;99.90;;;;;;5112265;28;20031;-86
2021/11/08 01:40:51;;;;;;;1999.90;999.90;;;5.30;99.90;;;;;;5112295;28;20463;-81
2021/11/08 01:43:17;;;;;;;1999.90;999.90;;;5.20;99.90;;;;;;5112405;28;20073;-81
2021/11/08 01:45:43;;;;;;;1999.90;999.90;;;5.30;99.90;;;;;;5113492;28;20133;-81
2021/11/08 01:48:11;;;;;;;1999.90;999.90;;;5.30;99.90;;;;;;5113215;28;20024;-80
2021/11/08 01:50:38;;;;;;;1999.90;999.90;;;5.30;99.90;;;;;;5112178;28;20032;-80
2021/11/08 01:53:04;;;;;;;1999.90;999.90;;;5.30;99.90;;;;;;5111947;28;20455;-81
2021/11/08 01:55:31;;;;;;;1999.90;999.90;;;5.30;99.90;;;;;;5112339;28;20031;-81
2021/11/08 01:57:57;;;;;;;1999.90;999.90;;;5.30;99.90;;;;;;5112406;28;20028;-81
2021/11/08 02:00:25;;;;;;;1999.90;999.90;;;5.30;99.90;;;;;;5111584;28;20048;-81
2021/11/08 02:02:51;;;;;;;1999.90;999.90;;;5.30;99.90;;;;;;5113084;28;20031;-83
2021/11/08 02:05:17;;;;;;;1999.90;999.90;;;5.30;99.90;;;;;;5116067;28;20459;-83
2021/11/08 02:07:44;;;;;;;1999.90;999.90;;;5.20;99.90;;;;;;5117066;28;20026;-81
2021/11/08 02:10:12;;;;;;;1999.90;999.90;;;5.30;99.90;;;;;;5115856;28;20359;-82
2021/11/08 02:12:39;;;;;;;1999.90;999.90;;;5.40;99.90;;;;;;5116061;28;20054;-81
2021/11/08 02:15:08;;;;;;;1999.90;999.90;;;5.30;99.90;;;;;;5116034;28;20027;-80
2021/11/08 02:17:34;;;;;;;1999.90;999.90;;;5.30;99.90;;;;;;5116038;28;20034;-82
2021/11/08 02:20:27;;;;;;;1999.90;999.90;;;5.20;99.90;;;;;;5115955;28;20031;-81
2021/11/08 02:22:59;;;;;;;1999.90;999.90;;;5.30;99.90;;;;;;5115706;28;20024;-83
2021/11/08 02:25:26;;;;;;;1999.90;999.90;;;5.30;99.90;;;;;;5115814;28;20028;-82
2021/11/08 02:27:53;;;;;;;1999.90;999.90;;;5.30;99.90;;;;;;5115416;28;20031;-80
2021/11/08 02:30:22;;;;;;;1999.90;999.90;;;5.30;99.90;;;;;;5115765;28;20020;-82
2021/11/08 02:32:49;;;;;;;1999.90;999.90;;;5.30;99.90;;;;;;5115308;28;20020;-82
2021/11/08 02:35:16;;;;;;;1999.90;999.90;;;5.20;99.90;;;;;;5115296;28;20032;-80
2021/11/08 02:37:42;;;;;;;1999.90;999.90;;;5.30;99.90;;;;;;5115336;28;20046;-82
2021/11/08 02:40:17;;;;;;;1999.90;999.90;;;5.30;99.90;;;;;;5115340;28;20518;-80
2021/11/08 02:42:43;;;;;;;1999.90;999.90;;;5.40;99.90;;;;;;5116638;28;20020;-81
2021/11/08 02:45:09;;;;;;;1999.90;999.90;;;5.40;99.90;;;;;;5114727;28;20039;-81
2021/11/08 02:47:36;;;;;;;1999.90;999.90;;;5.30;99.90;;;;;;5115102;28;20412;-82
2021/11/08 02:50:04;;;;;;;1999.90;999.90;;;5.30;99.90;;;;;;5116407;27;20024;-81
2021/11/08 02:52:29;;;;;;;1999.90;999.90;;;5.40;99.90;;;;;;5115125;28;20047;-80
2021/11/08 02:54:55;;;;;;;1999.90;999.90;;;5.40;99.90;;;;;;5114812;27;20054;-80
2021/11/08 02:57:24;;;;;;;1999.90;999.90;;;5.40;99.90;;;;;;5114744;28;20492;-82
2021/11/08 02:59:51;;;;;;;1999.90;999.90;;;5.40;99.90;;;;;;5116294;28;20063;-82
2021/11/08 03:02:18;;;;;;;1999.90;999.90;;;5.40;99.90;;;;;;5115367;28;20030;-83
2021/11/08 03:04:48;;;;;;;1999.90;999.90;;;5.40;99.90;;;;;;5114920;28;20027;-82
2021/11/08 03:07:16;;;;;;;1999.90;999.90;;;5.40;99.90;;;;;;5114925;28;20026;-80
2021/11/08 03:09:46;;;;;;;1999.90;999.90;;;5.40;99.90;;;;;;5116353;28;20106;-82
2021/11/08 03:12:17;;;;;;;1999.90;999.90;;;5.40;99.90;;;;;;5116050;28;20023;-84
2021/11/08 03:15:00;;;;;;;1999.90;999.90;;;5.50;99.90;;;;;;5114683;28;20485;-82
2021/11/08 03:17:31;;;;;;;1999.90;999.90;;;5.50;99.90;;;;;;5115114;28;20031;-82
2021/11/08 03:19:57;;;;;;;1999.90;999.90;;;5.50;99.90;;;;;;5116104;28;20063;-81
2021/11/08 03:22:30;;;;;;;1999.90;999.90;;;5.50;99.90;;;;;;5114801;28;20097;-81
2021/11/08 03:24:59;;;;;;;1999.90;999.90;;;5.50;99.90;;;;;;5114676;28;20131;-84
2021/11/08 03:30:11;;;;;;;1999.90;999.90;;;5.50;99.90;;;;;;5115792;28;20114;-83
2021/11/08 03:32:37;;;;;;;1999.90;999.90;;;5.50;99.90;;;;;;5114472;28;20023;-82
2021/11/08 03:35:05;;;;;;;1999.90;999.90;;;5.50;99.90;;;;;;5114405;28;20055;-81
2021/11/08 03:37:37;;;;;;;1999.90;999.90;;;5.50;99.90;;;;;;5114829;27;20498;-81
2021/11/08 03:40:06;;;;;;;1999.90;999.90;;;5.60;99.90;;;;;;5114517;28;20031;-80
2021/11/08 03:42:32;;;;;;;1999.90;999.90;;;5.60;99.90;;;;;;5114617;28;20091;-80
2021/11/08 03:44:59;;;;;;;1999.90;999.90;;;5.60;99.90;;;;;;5114376;28;20096;-80
2021/11/08 03:47:25;;;;;;;1999.90;999.90;;;5.60;99.90;;;;;;5114468;28;20019;-81
2021/11/08 03:49:51;;;;;;;1999.90;999.90;;;5.50;99.90;;;;;;5114145;28;20484;-82
2021/11/08 03:52:17;;;;;;;1999.90;999.90;;;5.50;99.90;;;;;;5114484;28;20023;-86
2021/11/08 03:54:42;;;;;;;1999.90;999.90;;;5.60;99.90;;;;;;5114606;28;20049;-80
2021/11/08 03:57:08;;;;;;;1999.90;999.90;;;5.60;99.90;;;;;;5115997;28;20035;-80
2021/11/08 03:59:34;;;;;;;1999.90;999.90;;;5.50;99.90;;;;;;5113818;28;20050;-82
2021/11/08 04:02:01;;;;;;;1999.90;999.90;;;5.60;99.90;;;;;;5114039;28;20023;-84
2021/11/08 04:04:27;;;;;;;1999.90;999.90;;;5.60;99.90;;;;;;5113782;28;20034;-82
2021/11/08 04:06:52;;;;;;;1999.90;999.90;;;5.60;99.90;;;;;;5115041;28;20347;-82
2021/11/08 04:09:18;;;;;;;1999.90;999.90;;;5.60;99.90;;;;;;5113816;28;20015;-81
2021/11/08 04:11:45;;;;;;;1999.90;999.90;;;5.70;99.90;;;;;;5113806;28;20509;-80
2021/11/08 04:14:13;;;;;;;1999.90;999.90;;;5.60;99.90;;;;;;5113797;28;20020;-81
2021/11/08 04:16:40;;;;;;;1999.90;999.90;;;5.70;99.90;;;;;;5113606;28;20091;-80
2021/11/08 04:19:07;;;;;;;1999.90;999.90;;;5.70;99.90;;;;;;5113937;27;20024;-82
2021/11/08 04:21:35;;;;;;;1999.90;999.90;;;5.60;99.90;;;;;;5113671;28;20538;-81
2021/11/08 04:24:01;;;;;;;1999.90;999.90;;;5.70;99.90;;;;;;5113547;28;20015;-81
2021/11/08 04:26:28;;;;;;;1999.90;999.90;;;5.70;99.90;;;;;;5112796;28;20047;-82
2021/11/08 04:29:00;;;;;;;1999.90;999.90;;;5.60;99.90;;;;;;5113438;28;20544;-80
2021/11/08 04:31:27;;;;;;;1999.90;999.90;;;5.60;99.90;;;;;;5113529;28;20072;-83
2021/11/08 04:33:58;;;;;;;1999.90;999.90;;;5.60;99.90;;;;;;5114289;28;20033;-81
2021/11/08 04:38:59;;;;;;;1999.90;999.90;;;5.60;99.90;;;;;;5114520;28;20084;-81
2021/11/08 04:41:42;;;;;;;1999.90;999.90;;;5.60;99.90;;;;;;5113207;28;20543;-81
2021/11/08 04:49:17;;;;;;;1999.90;999.90;;;5.50;99.90;;;;;;5114370;28;20069;-81
2021/11/08 04:54:54;;;;;;;1999.90;999.90;;;5.50;99.90;;;;;;5114360;28;20074;-83
2021/11/08 05:22:12;;;;;;;1999.90;999.90;;;5.50;99.90;;;;;;5113764;28;20063;-81
2021/11/08 05:30:11;;;;;;;1999.90;999.90;;;5.60;99.90;;;;;;5114531;28;20055;-81
2021/11/08 05:32:41;;;;;;;1999.90;999.90;;;5.60;99.90;;;;;;5112788;28;20020;-83
2021/11/08 05:35:09;;;;;;;1999.90;999.90;;;5.60;99.90;;;;;;5114038;28;20031;-84
2021/11/08 05:37:37;;;;;;;1999.90;999.90;;;5.60;99.90;;;;;;5116023;28;20477;-83
2021/11/08 05:40:14;;;;;;;1999.90;999.90;;;5.60;99.90;;;;;;5116785;28;20058;-82
2021/11/08 05:42:42;;;;;;;1999.90;999.90;;;5.60;99.90;;;;;;5116581;28;20042;-81
2021/11/08 05:45:11;;;;;;;1999.90;999.90;;;5.60;99.90;;;;;;5116507;28;20008;-81
2021/11/08 05:47:38;;;;;;;1999.90;999.90;;;5.60;99.90;;;;;;5117769;27;20494;-85
2021/11/08 05:50:06;;;;;;;1999.90;999.90;;;5.60;99.90;;;;;;5117134;28;20390;-80
2021/11/08 05:52:32;;;;;;;1999.90;999.90;;;5.60;99.90;;;;;;5116034;28;20455;-82
2021/11/08 05:54:58;;;;;;;1999.90;999.90;;;5.70;99.90;;;;;;5116081;28;20069;-82
2021/11/08 06:51:50;;;;;;;1999.90;999.90;;;5.90;99.90;;;;;;5117765;28;20027;-84
2021/11/08 06:54:17;;;;;;;1999.90;999.90;;;5.80;99.90;;;;;;5116626;28;20084;-85
2021/11/08 06:56:50;;;;;;;1999.90;999.90;;;5.90;99.90;;;;;;5116152;28;20031;-84
2021/11/08 06:59:17;;;;;;;1999.90;999.90;;;6.00;99.90;;;;;;5116261;28;20043;-86
2021/11/08 07:01:47;;;;;;;1999.90;999.90;;;6.00;99.90;;;;;;5115892;28;20036;-85
2021/11/08 07:04:13;;;;;;;1999.90;999.90;;;5.90;99.90;;;;;;5116166;28;20107;-86
2021/11/08 07:06:39;;;;;;;1999.90;999.90;;;6.00;99.90;;;;;;5116466;28;20509;-85
2021/11/08 07:09:05;;;;;;;1999.90;999.90;;;6.00;99.90;;;;;;5116096;28;20019;-82
2021/11/08 07:11:31;;;;;;;1999.90;999.90;;;6.00;99.90;;;;;;5116264;28;20382;-84
2021/11/08 07:13:57;;;;;;;1999.90;999.90;;;6.10;99.90;;;;;;5116284;28;20459;-85
2021/11/08 07:16:22;;;;;;;1999.90;999.90;;;6.10;99.90;;;;;;5115908;28;20113;-83
2021/11/08 07:18:48;;;;;;;1999.90;999.90;;;6.10;99.90;;;;;;5115784;28;20019;-84
2021/11/08 07:21:13;;;;;;;1999.90;999.90;;;6.20;99.90;;;;;;5116013;28;20032;-84
2021/11/08 07:23:39;;;;;;;1999.90;999.90;;;6.10;99.90;;;;;;5115867;28;20371;-83
2021/11/08 07:26:07;;;;;;;1999.90;999.90;;;6.10;99.90;;;;;;5116120;28;20051;-83
2021/11/08 07:28:32;;;;;;;1999.90;999.90;;;6.10;99.90;;;;;;5115825;28;20020;-85
2021/11/08 07:30:58;;;;;;;1999.90;999.90;;;6.10;99.90;;;;;;5115689;28;20031;-84
2021/11/08 07:33:24;;;;;;;1999.90;999.90;;;6.10;99.90;;;;;;5115880;28;20107;-83
2021/11/08 07:35:49;;;;;;;1999.90;999.90;;;6.20;99.90;;;;;;5115955;28;20463;-82
2021/11/08 07:38:15;;;;;;;1999.90;999.90;;;6.20;99.90;;;;;;5116915;28;20026;-82
2021/11/08 07:40:41;;;;;;;1999.90;999.90;;;6.30;99.90;;;;;;5115099;28;20559;-82
2021/11/08 07:43:06;;;;;;;1999.90;999.90;;;6.30;99.90;;;;;;5116340;28;20020;-86
2021/11/08 07:45:32;;;;;;;1999.90;999.90;;;6.30;99.90;;;;;;5115034;28;20031;-84
2021/11/08 07:47:58;;;;;;;1999.90;999.90;;;6.30;99.90;;;;;;5115275;28;20020;-82
2021/11/08 07:50:24;;;;;;;1999.90;999.90;;;6.40;99.90;;;;;;5115078;28;20023;-85
2021/11/08 07:52:49;;;;;;;1999.90;999.90;;;6.40;99.90;;;;;;5115008;28;20080;-85
2021/11/08 07:55:15;;;;;;;1999.90;999.90;;;6.40;99.90;;;;;;5114880;28;20019;-83
2021/11/08 07:57:40;;;;;;;1999.90;999.90;;;6.50;99.90;;;;;;5116509;28;20020;-87
2021/11/08 08:00:08;;;;;;;1999.90;999.90;;;6.50;99.90;;;;;;5114570;28;20040;-81
2021/11/08 08:02:34;;;;;;;1999.90;999.90;;;6.50;99.90;;;;;;5115349;28;20072;-84
2021/11/08 08:05:01;;;;;;;1999.90;999.90;;;6.50;99.90;;;;;;5114549;28;20031;-81
2021/11/08 08:07:26;;;;;;;1999.90;999.90;;;6.50;99.90;;;;;;5114543;28;20538;-84
2021/11/08 08:09:54;;;;;;;1999.90;999.90;;;6.50;99.90;;;;;;5114256;28;20062;-82
2021/11/08 08:12:20;;;;;;;1999.90;999.90;;;6.50;99.90;;;;;;5114083;28;20092;-80
2021/11/08 08:14:46;;;;;;;1999.90;999.90;;;6.60;99.90;;;;;;5114160;28;20027;-83
2021/11/08 08:17:12;;;;;;;1999.90;999.90;;;6.60;99.90;;;;;;5115357;28;20072;-84
2021/11/08 08:19:38;;;;;;;1999.90;999.90;;;6.60;99.90;;;;;;5114332;28;20110;-84
2021/11/08 08:22:04;;;;;;;1999.90;999.90;;;6.70;99.90;;;;;;5115191;28;20035;-85
2021/11/08 08:24:31;;;;;;;1999.90;999.90;;;6.80;99.90;;;;;;5114369;28;20827;-83
2021/11/08 08:26:57;;;;;;;1999.90;999.90;;;6.90;99.90;;;;;;5115435;28;20107;-82
2021/11/08 08:29:23;;;;;;;1999.90;999.90;;;7.00;99.90;;;;;;5114139;28;20119;-81
2021/11/08 08:31:50;;;;;;;1999.90;999.90;;;7.10;99.90;;;;;;5114560;28;20047;-82
2021/11/08 08:34:17;;;;;;;1999.90;999.90;;;7.20;99.90;;;;;;5114319;28;20023;-84
2021/11/08 08:36:44;;;;;;;1999.90;999.90;;;7.20;99.90;;;;;;5113479;28;20364;-82
2021/11/08 08:39:10;;;;;;;1999.90;999.90;;;7.30;99.90;;;;;;5115420;28;20074;-84
2021/11/08 08:41:37;;;;;;;1999.90;999.90;;;7.30;99.90;;;;;;5113952;28;20123;-84
2021/11/08 08:44:07;;;;;;;1999.90;999.90;;;7.40;99.90;;;;;;5113085;27;20030;-83
2021/11/08 08:46:33;;;;;;;1999.90;999.90;;;7.50;99.90;;;;;;5113646;28;20027;-83
2021/11/08 08:48:59;;;;;;;1999.90;999.90;;;7.50;99.90;;;;;;5113658;28;20024;-83
2021/11/08 08:51:25;;;;;;;1999.90;999.90;;;7.60;99.90;;;;;;5114406;28;20023;-85
2021/11/08 08:53:51;;;;;;;1999.90;999.90;;;7.70;99.90;;;;;;5114298;28;20023;-88
2021/11/08 08:56:19;;;;;;;1999.90;999.90;;;7.80;99.90;;;;;;5114280;28;20027;-83
2021/11/08 08:58:45;;;;;;;1999.90;999.90;;;7.90;99.90;;;;;;5114606;28;20417;-85
2021/11/08 09:01:10;;;;;;;1999.90;999.90;;;8.00;99.90;;;;;;5114083;28;20031;-84
2021/11/08 09:03:36;;;;;;;1999.90;999.90;;;8.10;99.90;;;;;;5115080;28;20520;-86
2021/11/08 09:06:02;;;;;;;1999.90;999.90;;;8.20;99.90;;;;;;5114749;28;20032;-85
2021/11/08 09:08:28;;;;;;;1999.90;999.90;;;8.20;99.90;;;;;;5114362;28;20399;-85
2021/11/08 09:10:53;;;;;;;1999.90;999.90;;;8.30;99.90;;;;;;5114415;28;20558;-84
2021/11/08 09:13:19;;;;;;;1999.90;999.90;;;8.30;99.90;;;;;;5113377;28;20059;-84
2021/11/08 09:15:46;;;;;;;1999.90;999.90;;;8.30;99.90;;;;;;5113275;28;20024;-82
2021/11/08 09:18:15;;;;;;;1999.90;999.90;;;8.30;99.90;;;;;;5113178;28;20020;-84
2021/11/08 09:20:43;;;;;;;1999.90;999.90;;;8.40;99.90;;;;;;5112957;28;20032;-83
2021/11/08 09:23:11;;;;;;;1999.90;999.90;;;8.40;99.90;;;;;;5113006;28;20569;-86
2021/11/08 09:25:37;;;;;;;1999.90;999.90;;;8.50;99.90;;;;;;5113090;28;20022;-83
2021/11/08 09:28:04;;;;;;;1999.90;999.90;;;8.50;99.90;;;;;;5113038;28;20051;-82
2021/11/08 09:30:33;;;;;;;1999.90;999.90;;;8.60;99.90;;;;;;5112958;28;20020;-81
2021/11/08 09:32:59;;;;;;;1999.90;999.90;;;8.50;99.90;;;;;;5112938;28;20023;-84
2021/11/08 09:35:32;;;;;;;1999.90;999.90;;;8.60;99.90;;;;;;5112463;28;20046;-83
2021/11/08 09:38:05;;;;;;;1999.90;999.90;;;8.70;99.90;;;;;;5112226;28;20020;-84
2021/11/08 09:40:31;;;;;;;1999.90;999.90;;;8.90;99.90;;;;;;5112430;28;20039;-80
2021/11/08 09:42:57;;;;;;;1999.90;999.90;;;9.00;99.90;;;;;;5112118;28;20024;-80
2021/11/08 09:45:23;;;;;;;1999.90;999.90;;;9.10;99.90;;;;;;5112200;28;20108;-80
2021/11/08 09:47:50;;;;;;;1999.90;999.90;;;9.20;99.90;;;;;;5112491;28;20066;-82
2021/11/08 09:50:20;;;;;;;1999.90;999.90;;;9.10;99.90;;;;;;5112981;28;20027;-84
2021/11/08 09:52:47;;;;;;;1999.90;999.90;;;9.20;99.90;;;;;;5112699;28;20077;-84
2021/11/08 09:55:18;;;;;;;1999.90;999.90;;;9.20;99.90;;;;;;5112398;28;20031;-82
2021/11/08 09:57:45;;;;;;;1999.90;999.90;;;9.40;99.90;;;;;;5111861;28;20023;-83
2021/11/08 10:00:43;;;;;;;1999.90;999.90;;;9.50;99.90;;;;;;5111991;28;20044;-81
2021/11/08 10:03:24;;;;;;;1999.90;999.90;;;9.60;99.90;;;;;;5112074;28;20028;-81
2021/11/08 10:05:51;;;;;;;1999.90;999.90;;;9.80;99.90;;;;;;5112528;28;20475;-80
2021/11/08 10:08:22;;;;;;;1999.90;999.90;;;9.70;99.90;;;;;;5114143;28;20098;-84
2021/11/08 10:10:52;;;;;;;1999.90;999.90;;;9.70;99.90;;;;;;5114275;28;20103;-86
2021/11/08 10:13:22;;;;;;;1999.90;999.90;;;9.60;99.90;;;;;;5114744;28;20058;-86
2021/11/08 10:15:51;;;;;;;1999.90;999.90;;;9.60;99.90;;;;;;5114689;28;20089;-84
2021/11/08 10:18:19;;;;;;;1999.90;999.90;;;9.70;99.90;;;;;;5114605;28;20024;-86
2021/11/08 10:20:50;;;;;;;1999.90;999.90;;;9.70;99.90;;;;;;5114412;28;20482;-83
2021/11/08 10:23:19;;;;;;;1999.90;999.90;;;9.80;99.90;;;;;;5114461;28;20023;-85
2021/11/08 10:25:45;;;;;;;1999.90;999.90;;;9.80;99.90;;;;;;5118406;28;20019;-87
2021/11/08 10:28:16;;;;;;;1999.90;999.90;;;9.80;99.90;;;;;;5118970;28;20016;-87
2021/11/08 10:30:45;;;;;;;1999.90;999.90;;;9.90;99.90;;;;;;5117495;28;20026;-82
2021/11/08 10:33:19;;;;;;;1999.90;999.90;;;10.10;99.90;;;;;;5116795;28;20118;-84
2021/11/08 10:35:47;;;;;;;1999.90;999.90;;;10.10;99.90;;;;;;5116341;28;20111;-81
2021/11/08 10:38:17;;;;;;;1999.90;999.90;;;10.10;99.90;;;;;;5115307;28;20087;-83
2021/11/08 10:40:52;;;;;;;1999.90;999.90;;;10.30;99.90;;;;;;5116899;28;20036;-83
2021/11/08 10:43:37;;;;;;;1999.90;999.90;;;10.30;99.90;;;;;;5116234;28;20828;-84
2021/11/08 10:46:07;;;;;;;1999.90;999.90;;;10.40;99.90;;;;;;5115650;28;20034;-85
2021/11/08 10:48:37;;;;;;;1999.90;999.90;;;10.40;99.90;;;;;;5115722;28;20020;-82
2021/11/08 10:51:05;;;;;;;1999.90;999.90;;;10.40;99.90;;;;;;5115971;28;20074;-82
2021/11/08 10:53:50;;;;;;;1999.90;999.90;;;10.40;99.90;;;;;;5115637;28;20024;-82
2021/11/08 10:56:38;;;;;;;1999.90;999.90;;;10.40;99.90;;;;;;5115700;28;20028;-86
2021/11/08 10:59:09;;;;;;;1999.90;999.90;;;10.30;99.90;;;;;;5115423;28;20280;-83
2021/11/08 11:01:44;;;;;;;1999.90;999.90;;;10.30;99.90;;;;;;5115566;28;20028;-84
2021/11/08 11:04:11;;;;;;;1999.90;999.90;;;10.30;99.90;;;;;;5115711;28;20379;-83
2021/11/08 11:06:45;;;;;;;1999.90;999.90;;;10.40;99.90;;;;;;5115553;28;20408;-87
2021/11/08 11:09:14;;;;;;;1999.90;999.90;;;10.50;99.90;;;;;;5115349;28;20015;-85
2021/11/08 11:11:41;;;;;;;1999.90;999.90;;;10.50;99.90;;;;;;5115624;28;20039;-88
2021/11/08 11:14:07;;;;;;;1999.90;999.90;;;10.60;99.90;;;;;;5115626;28;20020;-83
2021/11/08 11:16:41;;;;;;;1999.90;999.90;;;10.40;99.90;;;;;;5115398;28;20398;-83
2021/11/08 11:19:11;;;;;;;1999.90;999.90;;;10.50;99.90;;;;;;5115513;28;20020;-84
2021/11/08 11:21:38;;;;;;;1999.90;999.90;;;10.50;99.90;;;;;;5115198;28;20101;-85
2021/11/08 11:24:06;;;;;;;1999.90;999.90;;;10.40;99.90;;;;;;5114848;28;20015;-81
2021/11/08 11:26:50;;;;;;;1999.90;999.90;;;10.40;99.90;;;;;;5114633;28;20030;-80
2021/11/08 11:29:26;;;;;;;1999.90;999.90;;;10.50;99.90;;;;;;5115972;28;20073;-83
2021/11/08 11:31:53;;;;;;;1999.90;999.90;;;10.50;99.90;;;;;;5115771;28;20043;-82
2021/11/08 11:34:18;;;;;;;1999.90;999.90;;;10.50;99.90;;;;;;5114206;28;20015;-82
2021/11/08 11:36:44;;;;;;;1999.90;999.90;;;10.60;99.90;;;;;;5114135;28;20076;-84
2021/11/08 11:39:17;;;;;;;1999.90;999.90;;;10.70;99.90;;;;;;5114298;28;20030;-84
2021/11/08 11:41:45;;;;;;;1999.90;999.90;;;10.80;99.90;;;;;;5113930;28;20036;-81
2021/11/08 11:44:16;;;;;;;1999.90;999.90;;;10.80;99.90;;;;;;5114381;28;20030;-81
2021/11/08 11:46:48;;;;;;;1999.90;999.90;;;10.90;99.90;;;;;;5114167;28;20032;-83
2021/11/08 11:49:14;;;;;;;1999.90;999.90;;;10.90;99.90;;;;;;5114514;28;20024;-82
2021/11/08 11:51:44;;;;;;;1999.90;999.90;;;11.00;99.90;;;;;;5114659;28;20075;-83
2021/11/08 11:54:11;;;;;;;1999.90;999.90;;;11.00;99.90;;;;;;5114290;28;20024;-83
2021/11/08 11:56:41;;;;;;;1999.90;999.90;;;11.10;99.90;;;;;;5114594;28;20019;-84
2021/11/08 11:59:09;;;;;;;1999.90;999.90;;;11.10;99.90;;;;;;5114465;28;20047;-83
2021/11/08 12:01:36;;;;;;;1999.90;999.90;;;11.00;99.90;;;;;;5114248;28;20035;-82
2021/11/08 12:04:03;;;;;;;1999.90;999.90;;;10.90;99.90;;;;;;5114511;28;20015;-85
2021/11/08 12:06:32;;;;;;;1999.90;999.90;;;10.90;99.90;;;;;;5114120;28;20024;-82
2021/11/08 12:08:59;;;;;;;1999.90;999.90;;;11.00;99.90;;;;;;5114101;28;20054;-82
2021/11/08 12:11:32;;;;;;;1999.90;999.90;;;11.10;99.90;;;;;;5113838;28;20051;-82
2021/11/08 12:14:01;;;;;;;1999.90;999.90;;;11.10;99.90;;;;;;5114127;28;20019;-83
2021/11/08 12:16:28;;;;;;;1999.90;999.90;;;11.20;99.80;;;;;;5113744;28;20023;-83
2021/11/08 12:18:57;;;;;;;1999.90;999.90;;;11.30;99.90;;;;;;5113788;28;20057;-84
2021/11/08 12:21:26;;;;;;;1999.90;999.90;;;11.50;99.90;;;;;;5113952;28;20039;-85
2021/11/08 12:23:54;;;;;;;1999.90;999.90;;;11.60;99.90;;;;;;5114792;28;20115;-85
2021/11/08 12:26:25;;;;;;;1999.90;999.90;;;11.80;99.90;;;;;;5114648;28;20535;-86
2021/11/08 12:29:03;;;;;;;1999.90;999.90;;;11.90;99.80;;;;;;5114622;28;20042;-88
2021/11/08 12:31:33;;;;;;;1999.90;999.90;;;12.10;98.90;;;;;;5114657;28;20027;-87
2021/11/08 12:34:14;;;;;;;1999.90;999.90;;;12.10;97.30;;;;;;5114146;28;20020;-85
2021/11/08 12:36:41;;;;;;;1999.90;999.90;;;12.20;96.00;;;;;;5114056;28;20024;-84
2021/11/08 12:39:10;;;;;;;1999.90;999.90;;;12.20;95.70;;;;;;5114507;28;20076;-88
2021/11/08 12:41:46;;;;;;;1999.90;999.90;;;12.10;94.30;;;;;;5114906;28;20032;-86
2021/11/08 12:44:13;;;;;;;1999.90;999.90;;;12.00;95.80;;;;;;5114437;28;20023;-87
2021/11/08 12:46:56;;;;;;;1999.90;999.90;;;12.00;95.90;;;;;;5114196;28;20030;-86
2021/11/08 12:49:34;;;;;;;1999.90;999.90;;;12.10;97.50;;;;;;5114745;28;20024;-87
2021/11/08 12:52:34;;;;;;;1999.90;999.90;;;12.20;97.90;;;;;;5114392;28;20367;-86
2021/11/08 12:55:12;;;;;;;1999.90;999.90;;;12.00;97.40;;;;;;5080894;28;20062;-86
2021/11/08 12:57:50;;;;;;;1999.90;999.90;;;12.00;97.50;;;;;;5114234;28;20111;-88
2021/11/08 13:00:24;;;;;;;1999.90;999.90;;;12.10;97.50;;;;;;5113899;28;20089;-85
2021/11/08 13:02:56;;;;;;;1999.90;999.90;;;12.00;98.90;;;;;;5114316;28;20056;-87
2021/11/08 13:05:45;;;;;;;1999.90;999.90;;;12.00;97.90;;;;;;5114594;28;20016;-85
2021/11/08 13:08:37;;;;;;;1999.90;999.90;;;12.00;97.30;;;;;;5115548;28;20031;-86
2021/11/08 13:11:15;;;;;;;1999.90;999.90;;;11.90;98.30;;;;;;5112926;28;20067;-85
2021/11/08 13:13:53;;;;;;;1999.90;999.90;;;11.80;97.80;;;;;;5114169;28;20115;-86
2021/11/08 13:16:30;;;;;;;1999.90;999.90;;;11.80;98.10;;;;;;5113909;28;20031;-84
2021/11/08 13:19:06;;;;;;;1999.90;999.90;;;11.70;99.60;;;;;;5113265;28;20489;-83
2021/11/08 13:21:33;;;;;;;1999.90;999.90;;;11.50;98.30;;;;;;5114182;28;20467;-84
2021/11/08 13:24:02;;;;;;;1999.90;999.90;;;11.40;99.00;;;;;;5115493;28;20152;-83
2021/11/08 13:26:29;;;;;;;1999.90;999.90;;;11.40;99.80;;;;;;5113222;28;20076;-84
2021/11/08 13:28:55;;;;;;;1999.90;999.90;;;11.30;99.50;;;;;;5112948;28;20015;-83
2021/11/08 13:31:21;;;;;;;1999.90;999.90;;;11.20;99.90;;;;;;5113054;28;20022;-85
2021/11/08 13:33:53;;;;;;;1999.90;999.90;;;11.00;99.90;;;;;;5113996;28;20451;-85
2021/11/08 13:36:20;;;;;;;1999.90;999.90;;;10.90;99.90;;;;;;5113502;28;20027;-83
2021/11/08 13:38:50;;;;;;;1999.90;999.90;;;10.90;99.90;;;;;;5112549;28;20352;-84
2021/11/08 13:41:27;;;;;;;1999.90;999.90;;;10.80;99.90;;;;;;5112720;28;20043;-82
2021/11/08 13:44:09;;;;;;;1999.90;999.90;;;10.70;99.90;;;;;;5115340;28;20015;-84
2021/11/08 13:46:47;;;;;;;1999.90;999.90;;;10.60;99.90;;;;;;5112849;28;20028;-85
2021/11/08 13:49:18;;;;;;;1999.90;999.90;;;10.50;99.90;;;;;;5114058;28;20076;-82
2021/11/08 13:51:48;;;;;;;1999.90;999.90;;;10.50;99.90;;;;;;5113187;28;20024;-84
2021/11/08 13:54:19;;;;;;;1999.90;999.90;;;10.50;99.90;;;;;;5119110;28;20019;-83
2021/11/08 13:56:48;;;;;;;1999.90;999.90;;;10.40;99.90;;;;;;5117049;28;20034;-85
2021/11/08 13:59:27;;;;;;;1999.90;999.90;;;10.40;99.90;;;;;;5113857;28;20044;-82